Tiempo atmosférico en la estación meteorológica de Alpandeire, Málaga (680 m.)



Fecha
DESCASC
Temp. máxima en grados centígrados (hora)
DESCASC
Temp. mínima en grados centígrados (hora)
DESCASC
Temp. media en grados centígrados
DESCASC
Racha de viento máxima en m/sg (hora)
DESCASC
Velocidad máxima media en intervalos de 10 minutos(hora)
DESCASC
Precipitaciones diarias en mm
DESCASC
Precipitaciones de 00:00 a 06:00 en mm
DESCASC
Precipitaciones de 06:00 a 12:00 en mm
DESCASC
Precipitaciones de 12:00 a 18:00 en mm
DESCASC
Precipitaciones de 18:00 a 24:00 en mm
DESCASC
21-02-2019 14.5 (15:40) 7.3 (04:40) 10.9 9.17 (12:00) 4.44 (07:10) 0 0 0 0 0
20-02-2019 14.7 (16:10) 7.7 (00:00) 11.2 8.06 (15:10) 3.89 (14:20) 0 0 0 0 0
19-02-2019 15.6 (15:50) 6 (08:20) 10.8 7.22 (13:30) 3.61 (13:40) 0 0 0 0 0
18-02-2019 12.8 (15:10) 8.3 (04:30) 10.6 8.89 (14:40) 4.44 (18:20) 0 0 0 0 0
17-02-2019 14.8 (14:40) 7.5 (00:00) 11.2 10.56 (01:00) 5.28 (07:40) 0 0 0 0 0
16-02-2019 11.4 (17:00) 8.2 (00:00) 9.8 11.39 (09:50) 5.28 (14:20) 0 0 0 0 0
15-02-2019 13.9 (15:40) 7.7 (00:00) 10.8 9.72 (13:30) 5.28 (03:40) 0 0 0 0 0
14-02-2019 13 (16:20) 7.3 (00:00) 10.2 12.22 (08:10) 4.72 (23:59) 0 0 0 0 0
13-02-2019 13.3 (15:40) 7.3 (00:00) 10.3 9.44 (13:40) 5 (14:10) 0 0 0 0 0
12-02-2019 12 (12:10) 8.5 (00:00) 10.3 9.17 (12:20) 3.89 (19:00) 0 0 0 0 0
11-02-2019 19.6 (14:30) 9.3 (00:00) 14.5 12.78 (02:40) 6.94 (02:40) 0 0 0 0 0
10-02-2019 16 (14:00) 4.2 (00:00) 10.1 13.89 (20:10) 7.22 (14:30) 0 0 0 0 0
09-02-2019 19.2 (15:10) 5.5 (00:00) 12.4 5 (17:10) 2.78 (17:20) 0 0 0 0 0
08-02-2019 18.8 (15:00) 7 (00:00) 12.9 4.44 (15:10) 2.78 (15:20) 0 0 0 0 0
07-02-2019 19.9 (14:40) 8.1 (00:00) 14 10 (16:20) 5.56 (17:50) 0 0 0 0 0
06-02-2019 19.5 (16:00) 6.9 (00:00) 13.2 4.17 (15:20) 2.78 (15:20) 0 0 0 0 0
05-02-2019 18.9 (16:30) 5.3 (00:00) 12.1 3.89 (14:00) 2.22 (16:00) 0 0 0 0 0
04-02-2019 17.7 (15:50) 2.4 (00:00) 10.1 8.61 (00:20) 2.78 (00:10) 0 0 0 0 0
03-02-2019 11.2 (16:30) 1.5 (00:00) 6.3 8.06 (17:40) 3.33 (15:00) 0 0 0 0 0
02-02-2019 9.3 (16:10) 4.1 (00:00) 6.7 14.72 (14:50) 6.67 (02:40) 4.4 2 2.4 0 0
01-02-2019 11.2 (08:30) 5.4 (00:00) 8.3 20.83 (05:10) 11.11 (05:20) 51.4 14.6 22.2 2.2 12.4
31-01-2019 11.2 (15:40) 9.2 (00:00) 10.2 15.56 (16:00) 7.78 (16:30) 14.8 3 1.8 0.8 9.2
30-01-2019 13.3 (14:20) 8.2 (00:00) 10.8 12.22 (08:20) 5.83 (15:10) 2 0.2 0.4 0 1.4
29-01-2019 11.8 (12:30) 5.8 (00:00) 8.8 11.11 (14:20) 7.22 (14:10) 0 0 0 0 0
28-01-2019 13.6 (16:40) 6.2 (00:00) 9.9 13.89 (06:20) 7.22 (06:20) 0 0 0 0 0
27-01-2019 14.5 (14:40) 6.6 (00:00) 10.5 13.33 (11:30) 7.22 (11:50) 0 0 0 0 0
26-01-2019 19.5 (15:20) 7.9 (00:00) 13.7 7.5 (01:40) 3.33 (16:40) 0 0 0 0 0
25-01-2019 19.2 (15:50) 8.6 (00:00) 13.9 11.11 (21:30) 4.17 (11:00) 0 0 0 0 0
24-01-2019 17 (15:40) 8.5 (00:00) 12.8 11.67 (09:10) 5.83 (09:10) 0.4 0.2 0.2 0 0

Gráficas

Temp. máximas Temp. mínimas Temp. medias Precipitaciones Rachas de viento máximas Velocidades máximas media en intervalos de 10 minutos

Datos horarios

Fecha y hora oficial Temperatura (ºC) Velocidad del viento (km/h) Dirección del viento Racha (km/h) Dirección de racha Precipitación (mm) Presión (hPa) Tendencia (hPa) Humedad (%)
2019-02-22 23:00:00 8.9 2 Nordeste 5 Nordeste 0 -- -- 57
2019-02-22 22:00:00 8.7 0 Calma 3 Este 0 -- -- 70
2019-02-22 21:00:00 9.2 0 Calma 4 Sudeste 0 -- -- 69
2019-02-22 20:00:00 11.4 0 Calma 4 Este 0 -- -- 61
2019-02-22 19:00:00 15.5 0 Calma 11 Sudoeste 0 -- -- 48
2019-02-22 18:00:00 17.9 7 Sudoeste 14 Sudoeste 0 -- -- 41
2019-02-22 17:00:00 18.4 8 Sur 21 Sudoeste 0 -- -- 47
2019-02-22 16:00:00 17.9 10 Sur 23 Sur 0 -- -- 41
2019-02-22 15:00:00 17.8 8 Sudeste 22 Sur 0 -- -- 48
2019-02-22 14:00:00 16.2 13 Sur 26 Sur 0 -- -- 47
2019-02-22 13:00:00 15.2 9 Sur 27 Sudoeste 0 -- -- 53
2019-02-22 12:00:00 13.2 7 Sur 23 Sudeste 0 -- -- 66
2019-02-22 11:00:00 11.1 5 Este 20 Sur 0 -- -- 72
2019-02-22 10:00:00 9.3 9 Sudeste 18 Sudeste 0 -- -- 77
2019-02-22 09:00:00 7.1 3 Oeste 17 Este 0 -- -- 84
2019-02-22 08:00:00 6.9 3 Oeste 14 Nordeste 0 -- -- 81
2019-02-22 07:00:00 6.6 4 Sur 13 Sur 0 -- -- 74
2019-02-22 06:00:00 6.6 7 Sur 16 Este 0 -- -- 74
2019-02-22 05:00:00 6 4 Sudeste 9 Este 0 -- -- 72
2019-02-22 04:00:00 6.9 2 Sudoeste 11 Este 0 -- -- 75
2019-02-22 03:00:00 7.5 4 Sudeste 13 Sudeste 0 -- -- 76
2019-02-22 02:00:00 8 6 Sudeste 24 Nordeste 0 -- -- 77
2019-02-22 01:00:00 8.1 11 Este 22 Este 0 -- -- 78
2019-02-22 00:00:00 8.1 10 Este 23 Este 0 -- -- 79
2019-02-21 23:00:00 8.2 10 Este 23 Este 0 -- -- 79
2019-02-21 22:00:00 7.9 7 Este 19 Este 0 -- -- 78
2019-02-21 21:00:00 8.5 3 Nordeste 23 Este 0 -- -- 81
2019-02-21 20:00:00 9 7 Este 19 Este 0 -- -- 81
2019-02-21 19:00:00 10.3 4 Sur 21 Sudeste 0 -- -- 77
2019-02-21 18:00:00 12.4 10 Sudeste 26 Sudeste 0 -- -- 69
2019-02-21 17:00:00 13.4 12 Sur 25 Sudeste 0 -- -- 67
2019-02-21 16:00:00 14 13 Sudeste 26 Sudeste 0 -- -- 65
2019-02-21 15:00:00 13.9 9 Sudeste 23 Sur 0 -- -- 66
2019-02-21 14:00:00 12.5 12 Sudeste 25 Sudeste 0 -- -- 67
2019-02-21 13:00:00 13.2 14 Sudeste 30 Sudoeste 0 -- -- 64
2019-02-21 12:00:00 11.9 15 Sur 33 Sudeste 0 -- -- 66
2019-02-21 11:00:00 10.3 8 Sudeste 28 Sudeste 0 -- -- 70
2019-02-21 10:00:00 8.8 9 Sur 27 Sudoeste 0 -- -- 78
2019-02-21 09:00:00 7.7 4 Este 27 Este 0 -- -- 80
2019-02-21 08:00:00 7.4 6 Este 30 Este 0 -- -- 83
2019-02-21 07:00:00 7.4 12 Nordeste 27 Este 0 -- -- 80
2019-02-21 06:00:00 7.6 8 Nordeste 18 Este 0 -- -- 76
2019-02-21 05:00:00 7.6 4 Este 13 Nordeste 0 -- -- 70
2019-02-21 04:00:00 8 4 Este 22 Este 0 -- -- 71
2019-02-21 03:00:00 7.7 6 Nordeste 13 Este 0 -- -- 76
2019-02-21 02:00:00 8.3 4 Norte 17 Nordeste 0 -- -- 77
2019-02-21 01:00:00 8.4 6 Nordeste 22 Sudeste 0 -- -- 74
2019-02-21 00:00:00 8 4 Nordeste 17 Este 0 -- -- 75
2019-02-20 23:00:00 8.2 3 Norte 12 Nordeste 0 -- -- 73
2019-02-20 22:00:00 8.1 3 Noroeste 14 Este 0 -- -- 75
2019-02-20 21:00:00 8.5 8 Este 19 Nordeste 0 -- -- 81
2019-02-20 20:00:00 8.9 5 Sudeste 15 Sudeste 0 -- -- 80
2019-02-20 19:00:00 10.1 7 Sudeste 21 Este 0 -- -- 78
2019-02-20 18:00:00 12.2 9 Sudeste 24 Sudeste 0 -- -- 72
2019-02-20 17:00:00 13.8 10 Sur 24 Sur 0 -- -- 66
2019-02-20 16:00:00 14.4 11 Sur 29 Sur 0 -- -- 60
2019-02-20 15:00:00 14.1 13 Sur 28 Este 0 -- -- 62
2019-02-20 14:00:00 14.2 12 Sur 25 Este 0 -- -- 61
2019-02-20 13:00:00 13.6 10 Sudeste 26 Sudoeste 0 -- -- 66
2019-02-20 12:00:00 12 12 Sur 28 Sur 0 -- -- 69
2019-02-20 11:00:00 10.3 10 Sur 21 Sur 0 -- -- 74
2019-02-20 10:00:00 9.3 8 Sudeste 20 Sudeste 0 -- -- 79
2019-02-20 09:00:00 8.9 6 Este 15 Este 0 -- -- 83
2019-02-20 08:00:00 8.4 7 Este 15 Este 0 -- -- 84
2019-02-20 07:00:00 8.7 9 Este 23 Este 0 -- -- 77
2019-02-20 06:00:00 8.2 5 Nordeste 13 Este 0 -- -- 83
2019-02-20 05:00:00 8.7 4 Este 13 Este 0 -- -- 84
2019-02-20 04:00:00 8.7 6 Este 13 Este 0 -- -- 82
2019-02-20 03:00:00 9.1 6 Este 17 Nordeste 0 -- -- 77
2019-02-20 02:00:00 8.9 2 Este 13 Este 0 -- -- 84
2019-02-20 01:00:00 8.4 6 Nordeste 14 Nordeste 0 -- -- 85
2019-02-20 00:00:00 7.7 4 Nordeste 9 Norte 0 -- -- 84
2019-02-19 23:00:00 8.3 0 Calma 3 Nordeste 0 -- -- 86
2019-02-19 22:00:00 8.3 0 Calma 4 Oeste 0 -- -- 85
2019-02-19 21:00:00 8.9 0 Calma 2 Norte 0 -- -- 78
2019-02-19 20:00:00 10.1 0 Calma 6 Noroeste 0 -- -- 73
2019-02-19 19:00:00 11.9 4 Oeste 13 Sudoeste 0 -- -- 64
2019-02-19 18:00:00 15.2 3 Sur 15 Sur 0 -- -- 51
2019-02-19 17:00:00 15 6 Oeste 16 Sur 0 -- -- 47
2019-02-19 16:00:00 15.4 10 Sudoeste 20 Oeste 0 -- -- 43
2019-02-19 15:00:00 15.1 7 Sudoeste 21 Sur 0 -- -- 42
2019-02-19 14:00:00 14.4 10 Sur 26 Sudoeste 0 -- -- 42
2019-02-19 13:00:00 14 7 Sudeste 25 Sur 0 -- -- 46
2019-02-19 12:00:00 13.2 9 Sur 18 Sur 0 -- -- 49
2019-02-19 11:00:00 11.6 4 Sudoeste 10 Sur 0 -- -- 52
2019-02-19 10:00:00 7.8 3 Nordeste 5 Este 0 -- -- 70
2019-02-19 09:00:00 6.5 0 Calma 6 Norte 0 -- -- 73
2019-02-19 08:00:00 6.3 2 Nordeste 6 Nordeste 0 -- -- 71
2019-02-19 07:00:00 6.3 4 Nordeste 8 Nordeste 0 -- -- 71
2019-02-19 06:00:00 7 5 Nordeste 9 Nordeste 0 -- -- 72
2019-02-19 05:00:00 7.3 0 Calma 6 Sudeste 0 -- -- 72
2019-02-19 04:00:00 7.8 0 Calma 3 Norte 0 -- -- 75
2019-02-19 03:00:00 8.2 0 Calma 10 Nordeste 0 -- -- 74
2019-02-19 02:00:00 8.6 5 Este 15 Este 0 -- -- 72
2019-02-19 01:00:00 8.7 4 Nordeste 15 Nordeste 0 -- -- 65
2019-02-19 00:00:00 9.1 6 Este 20 Este 0 -- -- 66
2019-02-18 23:00:00 9.4 6 Este 20 Este 0 -- -- 64
2019-02-18 22:00:00 9.2 6 Sur 17 Sur 0 -- -- 71
2019-02-18 21:00:00 9.8 0 Calma 13 Sudoeste 0 -- -- 77
2019-02-18 20:00:00 10.9 2 Oeste 24 Este 0 -- -- 70
2019-02-18 19:00:00 11.4 3 Norte 27 Nordeste 0 -- -- 65
2019-02-18 18:00:00 11.1 9 Este 16 Este 0 -- -- 75
2019-02-18 17:00:00 12.2 4 Sur 17 Sudoeste 0 -- -- 72
2019-02-18 16:00:00 12.2 5 Sudeste 30 Sur 0 -- -- 72
2019-02-18 15:00:00 12.7 10 Sudeste 32 Sudeste 0 -- -- 65
2019-02-18 14:00:00 12.2 11 Este 31 Este 0 -- -- 66
2019-02-18 13:00:00 11.9 10 Sudeste 28 Sur 0 -- -- 65
2019-02-18 12:00:00 10.5 9 Sudeste 32 Sudeste 0 -- -- 73
2019-02-18 11:00:00 10.5 6 Este 29 Nordeste 0 -- -- 76
2019-02-18 10:00:00 9.1 10 Este 31 Este 0 -- -- 74
2019-02-18 09:00:00 8.6 8 Sudeste 25 Sur 0 -- -- 72
2019-02-18 08:00:00 8.4 4 Este 18 Este 0 -- -- 78
2019-02-18 07:00:00 8.4 6 Este 21 Sudeste 0 -- -- 79
2019-02-18 06:00:00 8.5 7 Este 30 Este 0 -- -- 79
2019-02-18 05:00:00 8.3 11 Este 25 Este 0 -- -- 78
2019-02-18 04:00:00 8.6 7 Sudeste 23 Sur 0 -- -- 79
2019-02-18 03:00:00 8.5 8 Sur 25 Sudeste 0 -- -- 79
2019-02-18 02:00:00 8.5 5 Sudeste 19 Sudeste 0 -- -- 76
2019-02-18 01:00:00 8.6 10 Este 21 Este 0 -- -- 78
2019-02-18 00:00:00 8.6 8 Nordeste 18 Este 0 -- -- 76
2019-02-17 23:00:00 8.7 15 Este 27 Este 0 -- -- 78
2019-02-17 22:00:00 8.6 6 Este 21 Este 0 -- -- 80
2019-02-17 21:00:00 9.2 5 Este 21 Este 0 -- -- 76
2019-02-17 20:00:00 9.4 8 Este 23 Nordeste 0 -- -- 79
2019-02-17 19:00:00 10.4 6 Este 18 Este 0 -- -- 76
2019-02-17 18:00:00 12.3 7 Este 22 Este 0 -- -- 70
2019-02-17 17:00:00 13.9 7 Este 24 Sudeste 0 -- -- 66
2019-02-17 16:00:00 14.7 8 Sudeste 22 Sudeste 0 -- -- 62
2019-02-17 15:00:00 14.6 12 Sudeste 27 Sudeste 0 -- -- 63
2019-02-17 14:00:00 14.1 12 Sudeste 24 Este 0 -- -- 65
2019-02-17 13:00:00 13.4 12 Sur 26 Sur 0 -- -- 66
2019-02-17 12:00:00 12.4 9 Sur 29 Sudeste 0 -- -- 67
2019-02-17 11:00:00 11 12 Sur 30 Sudoeste 0 -- -- 71
2019-02-17 10:00:00 9.5 10 Este 21 Sudeste 0 -- -- 76
2019-02-17 09:00:00 7.8 13 Este 26 Nordeste 0 -- -- 80
2019-02-17 08:00:00 7.6 13 Nordeste 32 Este 0 -- -- 80
2019-02-17 07:00:00 7.5 10 Este 28 Este 0 -- -- 80
2019-02-17 06:00:00 7.6 5 Este 19 Este 0 -- -- 78
2019-02-17 05:00:00 8 7 Este 24 Este 0 -- -- 79
2019-02-17 04:00:00 8.4 5 Este 27 Este 0 -- -- 80
2019-02-17 03:00:00 8.7 8 Este 33 Este 0 -- -- 80
2019-02-17 02:00:00 8.5 9 Este 30 Este 0 -- -- 78
2019-02-17 01:00:00 8.6 13 Este 38 Este 0 -- -- 79
2019-02-17 00:00:00 8.6 13 Este 41 Sudeste 0 -- -- 75
2019-02-16 23:00:00 8.5 6 Sudeste 35 Sudeste 0 -- -- 74
2019-02-16 22:00:00 8.3 13 Sudeste 38 Sudeste 0 -- -- 74
2019-02-16 21:00:00 8.3 9 Sudeste 27 Sur 0 -- -- 76
2019-02-16 20:00:00 8.5 8 Sudeste 31 Este 0 -- -- 75
2019-02-16 19:00:00 9.1 12 Sudeste 33 Sudeste 0 -- -- 76
2019-02-16 18:00:00 10.6 15 Sudeste 35 Este 0 -- -- 74
2019-02-16 17:00:00 11.4 13 Sudeste 30 Sudeste 0 -- -- 72
2019-02-16 16:00:00 10.7 15 Sur 33 Sur 0 -- -- 74
2019-02-16 15:00:00 10.7 13 Sur 40 Este 0 -- -- 74
2019-02-16 14:00:00 11.1 13 Sur 40 Sur 0 -- -- 73
2019-02-16 13:00:00 10.8 16 Sur 29 Sur 0 -- -- 73
2019-02-16 12:00:00 10.7 10 Sur 35 Sudoeste 0 -- -- 72
2019-02-16 11:00:00 10.5 12 Sudeste 32 Sur 0 -- -- 71
2019-02-16 10:00:00 9.5 10 Sudeste 41 Sudeste 0 -- -- 75
2019-02-16 09:00:00 9.2 10 Sudeste 32 Sudeste 0 -- -- 72
2019-02-16 08:00:00 8.6 8 Sudeste 35 Sudoeste 0 -- -- 78
2019-02-16 07:00:00 8.8 10 Sur 26 Sur 0 -- -- 75
2019-02-16 06:00:00 8.6 9 Sur 29 Este 0 -- -- 75
2019-02-16 05:00:00 8.8 8 Sudeste 30 Sudeste 0 -- -- 81
2019-02-16 04:00:00 9 10 Sudeste 32 Sudeste 0 -- -- 81
2019-02-16 03:00:00 8.8 8 Sudeste 34 Sudeste 0 -- -- 78
2019-02-16 02:00:00 8.8 8 Sur 28 Este 0 -- -- 80
2019-02-16 01:00:00 8.9 9 Sudeste 23 Sudeste 0 -- -- 79
2019-02-16 00:00:00 8.6 10 Sudeste 24 Sur 0 -- -- 80
2019-02-15 23:00:00 8.3 8 Sudeste 23 Sudeste 0 -- -- 84
2019-02-15 22:00:00 9 4 Sudoeste 27 Este 0 -- -- 76
2019-02-15 21:00:00 8.2 3 Este 15 Nordeste 0 -- -- 82
2019-02-15 20:00:00 8.6 5 Este 22 Este 0 -- -- 83
2019-02-15 19:00:00 9.8 5 Este 23 Este 0 -- -- 79
2019-02-15 18:00:00 11 7 Sur 29 Sur 0 -- -- 77
2019-02-15 17:00:00 12.9 13 Sur 28 Sudeste 0 -- -- 70
2019-02-15 16:00:00 13.8 12 Sur 35 Sur 0 -- -- 67
2019-02-15 15:00:00 13.7 14 Sudeste 33 Sudeste 0 -- -- 68
2019-02-15 14:00:00 13.2 12 Sudeste 35 Sur 0 -- -- 70
2019-02-15 13:00:00 12.6 13 Sudeste 31 Sudeste 0 -- -- 71
2019-02-15 12:00:00 11.2 12 Sudeste 27 Sudeste 0 -- -- 74
2019-02-15 11:00:00 10.5 9 Este 27 Sudeste 0 -- -- 75
2019-02-15 10:00:00 8.9 10 Este 24 Este 0 -- -- 82
2019-02-15 09:00:00 8 12 Este 27 Este 0 -- -- 84
2019-02-15 08:00:00 7.7 15 Este 30 Este 0 -- -- 83
2019-02-15 07:00:00 7.9 14 Este 26 Este 0 -- -- 83
2019-02-15 06:00:00 8 15 Este 27 Este 0 -- -- 84
2019-02-15 05:00:00 8.1 16 Este 28 Este 0 -- -- 83
2019-02-15 04:00:00 8.2 17 Este 32 Este 0 -- -- 82
2019-02-15 03:00:00 8.3 18 Este 32 Este 0 -- -- 81
2019-02-15 02:00:00 8.3 17 Este 32 Este 0 -- -- 79
2019-02-15 01:00:00 8.2 14 Nordeste 30 Este 0 -- -- 79
2019-02-15 00:00:00 8.1 17 Este 32 Nordeste 0 -- -- 77
2019-02-14 23:00:00 8.2 12 Este 29 Este 0 -- -- 75
2019-02-14 22:00:00 8 8 Este 22 Este 0 -- -- 73
2019-02-14 21:00:00 8.1 10 Este 24 Sudeste 0 -- -- 76
2019-02-14 20:00:00 8.5 8 Este 21 Este 0 -- -- 74
2019-02-14 19:00:00 9.4 5 Sudeste 24 Sudeste 0 -- -- 76
2019-02-14 18:00:00 11.3 9 Sudeste 25 Sudeste 0 -- -- 72
2019-02-14 17:00:00 12 12 Sudeste 29 Este 0 -- -- 71
2019-02-14 16:00:00 12.7 13 Sudeste 31 Sudeste 0 -- -- 69
2019-02-14 15:00:00 11.4 12 Sudeste 31 Este 0 -- -- 72
2019-02-14 14:00:00 11.7 12 Sudeste 31 Este 0 -- -- 72
2019-02-14 13:00:00 11.4 12 Sudeste 33 Sur 0 -- -- 69
2019-02-14 12:00:00 10.9 10 Este 32 Este 0 -- -- 72
2019-02-14 11:00:00 9.4 12 Este 40 Sudeste 0 -- -- 75
2019-02-14 10:00:00 8.3 11 Este 30 Este 0 -- -- 81
2019-02-14 09:00:00 7.8 14 Este 44 Este 0 -- -- 80
2019-02-14 08:00:00 7.5 13 Este 31 Este 0 -- -- 82
2019-02-14 07:00:00 7.3 10 Este 30 Este 0 -- -- 82
2019-02-14 06:00:00 7.3 14 Este 28 Este 0 -- -- 81
2019-02-14 05:00:00 7.4 13 Este 31 Este 0 -- -- 80
2019-02-14 04:00:00 7.4 9 Este 30 Este 0 -- -- 80
2019-02-14 03:00:00 7.6 10 Este 32 Este 0 -- -- 80
2019-02-14 02:00:00 7.8 11 Este 26 Este 0 -- -- 78
2019-02-14 01:00:00 7.9 10 Este 27 Este 0 -- -- 73
2019-02-14 00:00:00 8.1 14 Nordeste 27 Nordeste 0 -- -- 69
2019-02-13 23:00:00 8.2 10 Este 28 Este 0 -- -- 69
2019-02-13 22:00:00 8.2 5 Este 20 Este 0 -- -- 69
2019-02-13 21:00:00 8.3 7 Este 16 Este 0 -- -- 76
2019-02-13 20:00:00 8.5 4 Sudeste 22 Este 0 -- -- 82
2019-02-13 19:00:00 9.7 8 Sudeste 22 Este 0 -- -- 79
2019-02-13 18:00:00 11.7 8 Sudeste 26 Sudeste 0 -- -- 73
2019-02-13 17:00:00 12.4 12 Sur 30 Sudeste 0 -- -- 70
2019-02-13 16:00:00 13.1 13 Sudeste 31 Sudeste 0 -- -- 70
2019-02-13 15:00:00 13.1 13 Sudeste 33 Sudeste 0 -- -- 70
2019-02-13 14:00:00 12.5 17 Sudeste 34 Sudeste 0 -- -- 69
2019-02-13 13:00:00 12 14 Sudeste 32 Sudeste 0 -- -- 69
2019-02-13 12:00:00 11.4 13 Sudeste 28 Sudeste 0 -- -- 71
2019-02-13 11:00:00 10.5 9 Sudeste 30 Este 0 -- -- 72
2019-02-13 10:00:00 9.2 10 Este 28 Este 0 -- -- 73
2019-02-13 09:00:00 7.9 9 Nordeste 26 Este 0 -- -- 75
2019-02-13 08:00:00 7.6 16 Este 31 Este 0 -- -- 77
2019-02-13 07:00:00 7.4 10 Este 25 Este 0 -- -- 78
2019-02-13 06:00:00 7.4 11 Este 24 Este 0 -- -- 78
2019-02-13 05:00:00 7.4 10 Este 26 Este 0 -- -- 77
2019-02-13 04:00:00 7.7 8 Este 27 Este 0 -- -- 77
2019-02-13 03:00:00 8.1 9 Este 22 Este 0 -- -- 74
2019-02-13 02:00:00 8.2 10 Este 23 Sudeste 0 -- -- 71
2019-02-13 01:00:00 8.3 9 Este 22 Este 0 -- -- 68
2019-02-13 00:00:00 8.6 7 Este 24 Este 0 -- -- 68
2019-02-12 23:00:00 8.8 11 Este 22 Este 0 -- -- 67
2019-02-12 22:00:00 9 9 Este 27 Este 0 -- -- 66
2019-02-12 21:00:00 8.8 7 Este 22 Sur 0 -- -- 68
2019-02-12 20:00:00 9.2 9 Este 27 Nordeste 0 -- -- 70
2019-02-12 19:00:00 9.8 14 Este 28 Norte 0 -- -- 70
2019-02-12 18:00:00 10.7 12 Este 29 Este 0 -- -- 74
2019-02-12 17:00:00 10.9 11 Este 28 Este 0 -- -- 78
2019-02-12 16:00:00 10.7 7 Sudeste 22 Sudeste 0 -- -- 82
2019-02-12 15:00:00 10.5 9 Sudeste 27 Sur 0 -- -- 86
2019-02-12 14:00:00 10.9 9 Sudeste 31 Sudeste 0 -- -- 84
2019-02-12 13:00:00 11.5 10 Sudeste 33 Sudeste 0 -- -- 80
2019-02-12 12:00:00 11.9 10 Sudeste 26 Sur 0 -- -- 77
2019-02-12 11:00:00 11.3 8 Sudeste 24 Sudeste 0 -- -- 80
2019-02-12 10:00:00 10.9 3 Sudeste 15 Nordeste 0 -- -- 79
2019-02-12 09:00:00 10 3 Este 19 Este 0 -- -- 82
2019-02-12 08:00:00 9.7 11 Este 19 Este 0 -- -- 81
2019-02-12 07:00:00 9 7 Este 19 Este 0 -- -- 79
2019-02-12 06:00:00 9.3 9 Este 16 Este 0 -- -- 76
2019-02-12 05:00:00 10 10 Este 24 Nordeste 0 -- -- 72
2019-02-12 04:00:00 10.5 8 Este 21 Sudeste 0 -- -- 70
2019-02-12 03:00:00 10.9 10 Este 21 Nordeste 0 -- -- 71
2019-02-12 02:00:00 11 3 Este 17 Nordeste 0 -- -- 77
2019-02-12 01:00:00 9.2 2 Este 5 Este 0 -- -- 84
2019-02-12 00:00:00 9.7 0 Calma 8 Nordeste 0 -- -- 81
2019-02-11 23:00:00 10.3 0 Calma 5 Nordeste 0 -- -- 78
2019-02-11 22:00:00 10.6 0 Calma 4 Este 0 -- -- 78
2019-02-11 21:00:00 11.9 0 Calma 4 Sudoeste 0 -- -- 74
2019-02-11 20:00:00 13.4 0 Calma 8 Sur 0 -- -- 67
2019-02-11 19:00:00 15.9 0 Calma 25 Norte 0 -- -- 59
2019-02-11 18:00:00 17.3 13 Norte 25 Norte 0 -- -- 55
2019-02-11 17:00:00 19.3 9 Norte 19 Nordeste 0 -- -- 44
2019-02-11 16:00:00 19.3 8 Nordeste 22 Nordeste 0 -- -- 41
2019-02-11 15:00:00 19.2 12 Noroeste 24 Oeste 0 -- -- 39
2019-02-11 14:00:00 18.7 8 Oeste 21 Noroeste 0 -- -- 37
2019-02-11 13:00:00 17.7 2 Norte 21 Sur 0 -- -- 47
2019-02-11 12:00:00 16.5 9 Sudoeste 17 Sur 0 -- -- 54
2019-02-11 11:00:00 14.7 4 Sur 9 Sur 0 -- -- 69
2019-02-11 10:00:00 12.4 3 Sudeste 16 Sudoeste 0 -- -- 76
2019-02-11 09:00:00 10.9 9 Nordeste 25 Norte 0 -- -- 79
2019-02-11 08:00:00 9.6 3 Sudoeste 13 Sudeste 0 -- -- 86
2019-02-11 07:00:00 9.7 4 Sur 17 Sudeste 0 -- -- 86
2019-02-11 06:00:00 10.2 3 Sur 31 Este 0 -- -- 82
2019-02-11 05:00:00 11 14 Nordeste 40 Nordeste 0 -- -- 80
2019-02-11 04:00:00 11.6 13 Nordeste 43 Norte 0 -- -- 74
2019-02-11 03:00:00 11.9 18 Nordeste 46 Nordeste 0 -- -- 72
2019-02-11 02:00:00 9.6 3 Nordeste 13 Este 0 -- -- 77
2019-02-11 01:00:00 9.5 5 Sudeste 16 Oeste 0 -- -- 77
2019-02-11 00:00:00 9.9 5 Noroeste 21 Sur 0 -- -- 74
2019-02-10 23:00:00 9.8 7 Sur 19 Norte 0 -- -- 74
2019-02-10 22:00:00 10.7 10 Nordeste 44 Nordeste 0 -- -- 70
2019-02-10 21:00:00 11.2 19 Nordeste 50 Norte 0 -- -- 65
2019-02-10 20:00:00 11.2 20 Nordeste 43 Nordeste 0 -- -- 68
2019-02-10 19:00:00 11.4 19 Nordeste 41 Nordeste 0 -- -- 66
2019-02-10 18:00:00 13.7 9 Este 34 Norte 0 -- -- 58
2019-02-10 17:00:00 13.4 17 Nordeste 39 Nordeste 0 -- -- 62
2019-02-10 16:00:00 13.6 12 Norte 39 Noroeste 0 -- -- 61
2019-02-10 15:00:00 14.8 5 Noroeste 44 Norte 0 -- -- 55
2019-02-10 14:00:00 16 6 Sudoeste 19 Sudoeste 0 -- -- 55
2019-02-10 13:00:00 14.4 11 Sur 17 Sur 0 -- -- 55
2019-02-10 12:00:00 12.9 8 Sur 18 Sur 0 -- -- 60
2019-02-10 11:00:00 10.4 4 Sur 13 Sur 0 -- -- 68
2019-02-10 10:00:00 7.6 3 Nordeste 7 Sur 0 -- -- 71
2019-02-10 09:00:00 5.2 3 Noroeste 8 Este 0 -- -- 69
2019-02-10 08:00:00 4.5 0 Calma 5 Nordeste 0 -- -- 65
2019-02-10 07:00:00 4.8 0 Calma 5 Este 0 -- -- 64
2019-02-10 06:00:00 5.6 0 Calma 4 Nordeste 0 -- -- 57
2019-02-10 05:00:00 6.2 0 Calma 10 Nordeste 0 -- -- 51
2019-02-10 04:00:00 7.2 4 Nordeste 9 Nordeste 0 -- -- 47
2019-02-10 03:00:00 7.6 5 Nordeste 10 Nordeste 0 -- -- 52
2019-02-10 02:00:00 7.2 0 Calma 10 Nordeste 0 -- -- 56
2019-02-10 01:00:00 8 6 Nordeste 10 Nordeste 0 -- -- 49
2019-02-10 00:00:00 7.9 3 Este 5 Este 0 -- -- 57
2019-02-09 23:00:00 8 0 Calma 8 Nordeste 0 -- -- 58
2019-02-09 22:00:00 9 2 Nordeste 4 Nordeste 0 -- -- 64
2019-02-09 21:00:00 9.3 0 Calma 4 Este 0 -- -- 69
2019-02-09 20:00:00 11.7 2 Norte 6 Noroeste 0 -- -- 61
2019-02-09 19:00:00 14.1 2 Noroeste 10 Sudoeste 0 -- -- 54
2019-02-09 18:00:00 16.2 8 Sudoeste 18 Sudoeste 0 -- -- 48
2019-02-09 17:00:00 17.9 10 Sudoeste 17 Oeste 0 -- -- 44
2019-02-09 16:00:00 18.5 9 Sudoeste 15 Oeste 0 -- -- 37
2019-02-09 15:00:00 18.9 7 Sudoeste 17 Sudoeste 0 -- -- 32
2019-02-09 14:00:00 18 6 Oeste 17 Oeste 0 -- -- 28
2019-02-09 13:00:00 17 5 Sudoeste 13 Sudoeste 0 -- -- 26
2019-02-09 12:00:00 16.1 5 Sudoeste 10 Sudoeste 0 -- -- 30
2019-02-09 11:00:00 12.8 2 Oeste 7 Noroeste 0 -- -- 44
2019-02-09 10:00:00 9.4 0 Calma 4 Este 0 -- -- 52
2019-02-09 09:00:00 6.6 2 Este 9 Nordeste 0 -- -- 46
2019-02-09 08:00:00 6.4 0 Calma 12 Nordeste 0 -- -- 48
2019-02-09 07:00:00 6.1 3 Este 10 Este 0 -- -- 48
2019-02-09 06:00:00 6.2 7 Nordeste 11 Nordeste 0 -- -- 48
2019-02-09 05:00:00 5.7 3 Este 8 Nordeste 0 -- -- 51
2019-02-09 04:00:00 6.2 0 Calma 10 Nordeste 0 -- -- 58
2019-02-09 03:00:00 7.1 6 Nordeste 10 Nordeste 0 -- -- 50
2019-02-09 02:00:00 6.6 3 Este 8 Nordeste 0 -- -- 62
2019-02-09 01:00:00 7.5 3 Nordeste 5 Nordeste 0 -- -- 71
2019-02-09 00:00:00 7.5 4 Nordeste 7 Nordeste 0 -- -- 71
2019-02-08 23:00:00 8.6 0 Calma 4 Nordeste 0 -- -- 75
2019-02-08 22:00:00 9.6 0 Calma 5 Este 0 -- -- 82
2019-02-08 21:00:00 10.6 3 Nordeste 5 Nordeste 0 -- -- 78
2019-02-08 20:00:00 11.9 0 Calma 6 Noroeste 0 -- -- 73
2019-02-08 19:00:00 14.1 3 Noroeste 10 Oeste 0 -- -- 67
2019-02-08 18:00:00 16.9 6 Sudoeste 15 Sudoeste 0 -- -- 56
2019-02-08 17:00:00 17.2 9 Sudoeste 15 Sudoeste 0 -- -- 52
2019-02-08 16:00:00 17.1 8 Sudoeste 16 Sudoeste 0 -- -- 48
2019-02-08 15:00:00 18.8 9 Sudoeste 15 Sur 0 -- -- 43
2019-02-08 14:00:00 17.6 7 Oeste 16 Sudoeste 0 -- -- 46
2019-02-08 13:00:00 16.3 5 Oeste 11 Oeste 0 -- -- 49
2019-02-08 12:00:00 16.1 6 Sur 10 Sur 0 -- -- 47
2019-02-08 11:00:00 14.1 3 Sudoeste 6 Oeste 0 -- -- 53
2019-02-08 10:00:00 10.4 0 Calma 4 Este 0 -- -- 68
2019-02-08 09:00:00 7.4 0 Calma 5 Este 0 -- -- 67
2019-02-08 08:00:00 7.4 0 Calma 4 Nordeste 0 -- -- 68
2019-02-08 07:00:00 7.4 2 Este 9 Nordeste 0 -- -- 68
2019-02-08 06:00:00 8.4 4 Nordeste 9 Nordeste 0 -- -- 57
2019-02-08 05:00:00 8.8 5 Nordeste 10 Nordeste 0 -- -- 51
2019-02-08 04:00:00 7.7 3 Este 7 Nordeste 0 -- -- 56
2019-02-08 03:00:00 8 0 Calma 5 Este 0 -- -- 57
2019-02-08 02:00:00 8.4 2 Este 9 Nordeste 0 -- -- 54
2019-02-08 01:00:00 9.2 6 Nordeste 10 Nordeste 0 -- -- 55
2019-02-08 00:00:00 9.5 3 Nordeste 8 Nordeste 0 -- -- 61
2019-02-07 23:00:00 9.5 3 Nordeste 7 Nordeste 0 -- -- 62
2019-02-07 22:00:00 10.5 3 Norte 7 Nordeste 0 -- -- 62
2019-02-07 21:00:00 10.8 3 Nordeste 7 Este 0 -- -- 62
2019-02-07 20:00:00 12.3 4 Este 12 Sudeste 0 -- -- 56
2019-02-07 19:00:00 14.8 6 Este 34 Norte 0 -- -- 46
2019-02-07 18:00:00 16.3 16 Norte 35 Norte 0 -- -- 46
2019-02-07 17:00:00 17.2 18 Norte 36 Nordeste 0 -- -- 46
2019-02-07 16:00:00 18.4 18 Norte 35 Norte 0 -- -- 42
2019-02-07 15:00:00 19.9 7 Oeste 20 Noroeste 0 -- -- 37
2019-02-07 14:00:00 19.4 7 Sudoeste 17 Oeste 0 -- -- 40
2019-02-07 13:00:00 18.2 7 Sudoeste 16 Sur 0 -- -- 45
2019-02-07 12:00:00 17.1 6 Sur 12 Sudoeste 0 -- -- 49
2019-02-07 11:00:00 15.1 3 Sudeste 9 Sur 0 -- -- 55
2019-02-07 10:00:00 11.4 0 Calma 8 Este 0 -- -- 74
2019-02-07 09:00:00 9.3 5 Nordeste 8 Nordeste 0 -- -- 70
2019-02-07 08:00:00 9.4 6 Nordeste 10 Nordeste 0 -- -- 69
2019-02-07 07:00:00 9.3 4 Nordeste 9 Nordeste 0 -- -- 69
2019-02-07 06:00:00 8.7 6 Nordeste 10 Nordeste 0 -- -- 70
2019-02-07 05:00:00 8.1 3 Este 8 Nordeste 0 -- -- 73
2019-02-07 04:00:00 8.6 3 Este 6 Nordeste 0 -- -- 71
2019-02-07 03:00:00 8.5 4 Nordeste 8 Nordeste 0 -- -- 71
2019-02-07 02:00:00 9.7 5 Nordeste 9 Nordeste 0 -- -- 67
2019-02-07 01:00:00 9.7 2 Nordeste 8 Nordeste 0 -- -- 69
2019-02-07 00:00:00 9.7 0 Calma 8 Nordeste 0 -- -- 72
2019-02-06 23:00:00 9.9 3 Nordeste 4 Nordeste 0 -- -- 75
2019-02-06 22:00:00 9.2 0 Calma 3 Este 0 -- -- 78
2019-02-06 21:00:00 9.6 0 Calma 3 Sudeste 0 -- -- 76
2019-02-06 20:00:00 11.5 0 Calma 5 Noroeste 0 -- -- 68
2019-02-06 19:00:00 14.3 0 Calma 8 Oeste 0 -- -- 58
2019-02-06 18:00:00 17.3 4 Oeste 10 Sudoeste 0 -- -- 51
2019-02-06 17:00:00 18.3 7 Oeste 14 Oeste 0 -- -- 48
2019-02-06 16:00:00 19.5 7 Sudoeste 15 Sur 0 -- -- 45
2019-02-06 15:00:00 19.1 9 Sudoeste 14 Sur 0 -- -- 42
2019-02-06 14:00:00 18.1 6 Oeste 12 Oeste 0 -- -- 42
2019-02-06 13:00:00 17.6 6 Sur 10 Sur 0 -- -- 43
2019-02-06 12:00:00 15.3 5 Oeste 8 Sudoeste 0 -- -- 48
2019-02-06 11:00:00 13.7 3 Oeste 5 Sudoeste 0 -- -- 51
2019-02-06 10:00:00 10.8 0 Calma 4 Este 0 -- -- 60
2019-02-06 09:00:00 8.3 0 Calma 11 Nordeste 0 -- -- 62
2019-02-06 08:00:00 7.3 0 Calma 5 Nordeste 0 -- -- 65
2019-02-06 07:00:00 7.6 2 Este 5 Nordeste 0 -- -- 62
2019-02-06 06:00:00 7.1 2 Este 3 Este 0 -- -- 66
2019-02-06 05:00:00 7.4 2 Nordeste 5 Este 0 -- -- 64
2019-02-06 04:00:00 8.2 0 Calma 7 Nordeste 0 -- -- 61
2019-02-06 03:00:00 8.4 3 Este 6 Nordeste 0 -- -- 60
2019-02-06 02:00:00 9 2 Nordeste 6 Nordeste 0 -- -- 58
2019-02-06 01:00:00 9.4 2 Norte 8 Nordeste 0 -- -- 59
2019-02-06 00:00:00 9.4 3 Nordeste 8 Nordeste 0 -- -- 59
2019-02-05 23:00:00 9.7 3 Nordeste 9 Este 0 -- -- 65
2019-02-05 22:00:00 9.9 3 Nordeste 6 Nordeste 0 -- -- 71
2019-02-05 21:00:00 10 3 Este 6 Este 0 -- -- 78
2019-02-05 20:00:00 11.2 3 Este 6 Sudeste 0 -- -- 73
2019-02-05 19:00:00 14 0 Calma 7 Sudoeste 0 -- -- 62
2019-02-05 18:00:00 17 4 Sudoeste 12 Oeste 0 -- -- 56
2019-02-05 17:00:00 18.3 6 Oeste 12 Sudoeste 0 -- -- 52
2019-02-05 16:00:00 18.7 8 Sudoeste 13 Sudoeste 0 -- -- 50
2019-02-05 15:00:00 18.4 6 Sur 14 Sudoeste 0 -- -- 46
2019-02-05 14:00:00 17.5 6 Sudoeste 14 Sudoeste 0 -- -- 41
2019-02-05 13:00:00 15.7 5 Sudoeste 10 Oeste 0 -- -- 39
2019-02-05 12:00:00 14.1 4 Sudoeste 9 Sudoeste 0 -- -- 39
2019-02-05 11:00:00 12.8 3 Sudoeste 6 Sudoeste 0 -- -- 44
2019-02-05 10:00:00 9 0 Calma 4 Sudeste 0 -- -- 58
2019-02-05 09:00:00 6.1 0 Calma 5 Este 0 -- -- 53
2019-02-05 08:00:00 5.8 0 Calma 4 Este 0 -- -- 51
2019-02-05 07:00:00 5.7 0 Calma 4 Este 0 -- -- 48
2019-02-05 06:00:00 5.4 0 Calma 5 Este 0 -- -- 50
2019-02-05 05:00:00 5.8 0 Calma 4 Este 0 -- -- 50
2019-02-05 04:00:00 6.8 0 Calma 7 Este 0 -- -- 45
2019-02-05 03:00:00 8 3 Nordeste 8 Nordeste 0 -- -- 42
2019-02-05 02:00:00 7.4 0 Calma 10 Nordeste 0 -- -- 43
2019-02-05 01:00:00 7.9 3 Nordeste 6 Este 0 -- -- 39
2019-02-05 00:00:00 8 5 Nordeste 10 Nordeste 0 -- -- 45
2019-02-04 23:00:00 8.7 5 Nordeste 11 Este 0 -- -- 40
2019-02-04 22:00:00 8.6 6 Este 16 Este 0 -- -- 46
2019-02-04 21:00:00 8 0 Calma 6 Este 0 -- -- 60
2019-02-04 20:00:00 8.6 2 Nordeste 6 Este 0 -- -- 67
2019-02-04 19:00:00 11.3 0 Calma 6 Sudoeste 0 -- -- 58
2019-02-04 18:00:00 14.3 4 Oeste 10 Oeste 0 -- -- 50
2019-02-04 17:00:00 16.6 5 Sudoeste 14 Oeste 0 -- -- 42
2019-02-04 16:00:00 17.6 6 Sudoeste 14 Oeste 0 -- -- 39
2019-02-04 15:00:00 16.5 6 Sudoeste 14 Sur 0 -- -- 38
2019-02-04 14:00:00 14.9 5 Sudoeste 11 Oeste 0 -- -- 40
2019-02-04 13:00:00 13.4 4 Sudoeste 10 Sudeste 0 -- -- 39
2019-02-04 12:00:00 12.2 6 Sudoeste 10 Oeste 0 -- -- 38
2019-02-04 11:00:00 10 3 Sur 6 Sur 0 -- -- 41
2019-02-04 10:00:00 6 3 Oeste 10 Este 0 -- -- 47
2019-02-04 09:00:00 3.4 2 Noroeste 8 Este 0 -- -- 44
2019-02-04 08:00:00 3.2 4 Este 8 Nordeste 0 -- -- 51
2019-02-04 07:00:00 3.2 4 Nordeste 10 Nordeste 0 -- -- 51
2019-02-04 06:00:00 2.9 3 Nordeste 10 Nordeste 0 -- -- 55
2019-02-04 05:00:00 2.7 2 Este 8 Nordeste 0 -- -- 61
2019-02-04 04:00:00 2.8 3 Este 8 Nordeste 0 -- -- 63
2019-02-04 03:00:00 3.1 3 Norte 10 Nordeste 0 -- -- 69
2019-02-04 02:00:00 3.3 4 Nordeste 9 Nordeste 0 -- -- 70
2019-02-04 01:00:00 4.4 3 Nordeste 31 Este 0 -- -- 66
2019-02-04 00:00:00 4.5 11 Nordeste 26 Norte 0 -- -- 64
2019-02-03 23:00:00 5 5 Nordeste 22 Este 0 -- -- 63
2019-02-03 22:00:00 4.1 5 Este 14 Sudeste 0 -- -- 63
2019-02-03 21:00:00 4.4 2 Oeste 8 Sudoeste 0 -- -- 64
2019-02-03 20:00:00 5.2 2 Sudoeste 8 Sudeste 0 -- -- 59
2019-02-03 19:00:00 7.1 0 Calma 24 Norte 0 -- -- 53
2019-02-03 18:00:00 9.3 10 Noroeste 29 Nordeste 0 -- -- 43
2019-02-03 17:00:00 10.7 10 Norte 23 Este 0 -- -- 41
2019-02-03 16:00:00 10.9 10 Este 26 Este 0 -- -- 44
2019-02-03 15:00:00 10.6 12 Este 26 Este 0 -- -- 40
2019-02-03 14:00:00 10.2 8 Este 22 Este 0 -- -- 45
2019-02-03 13:00:00 8.7 7 Nordeste 21 Este 0 -- -- 47
2019-02-03 12:00:00 7.7 9 Sudeste 19 Nordeste 0 -- -- 54
2019-02-03 11:00:00 4.8 10 Noroeste 20 Oeste 0 -- -- 64
2019-02-03 10:00:00 3.1 7 Oeste 18 Sudoeste 0 -- -- 73
2019-02-03 09:00:00 1.5 5 Sur 13 Sudoeste 0 -- -- 74
2019-02-03 08:00:00 2.6 5 Sudoeste 24 Noroeste 0 -- -- 69
2019-02-03 07:00:00 2.6 8 Norte 23 Norte 0 -- -- 67
2019-02-03 06:00:00 2.7 6 Nordeste 20 Norte 0 -- -- 65
2019-02-03 05:00:00 3 7 Nordeste 20 Nordeste 0 -- -- 64
2019-02-03 04:00:00 3.3 5 Norte 22 Nordeste 0 -- -- 63
2019-02-03 03:00:00 3.6 6 Nordeste 24 Nordeste 0 -- -- 63
2019-02-03 02:00:00 3.3 4 Sudeste 14 Norte 0 -- -- 64
2019-02-03 01:00:00 3.9 4 Este 17 Nordeste 0 -- -- 63
2019-02-03 00:00:00 4.1 6 Sur 22 Nordeste 0 -- -- 62
2019-02-02 23:00:00 4.9 12 Nordeste 28 Nordeste 0 -- -- 58
2019-02-02 22:00:00 4.9 4 Sudoeste 12 Sudoeste 0 -- -- 63
2019-02-02 21:00:00 5.4 5 Sur 17 Oeste 0 -- -- 62
2019-02-02 20:00:00 6 3 Sur 27 Noroeste 0 -- -- 61
2019-02-02 19:00:00 7 14 Noroeste 41 Oeste 0 -- -- 57
2019-02-02 18:00:00 7.5 21 Noroeste 37 Noroeste 0 -- -- 54
2019-02-02 17:00:00 8.5 17 Noroeste 41 Noroeste 0 -- -- 50
2019-02-02 16:00:00 9.2 17 Noroeste 49 Noroeste 0 -- -- 50
2019-02-02 15:00:00 8.7 18 Noroeste 53 Noroeste 0 -- -- 55
2019-02-02 14:00:00 8.6 15 Oeste 42 Oeste 0 -- -- 59
2019-02-02 13:00:00 7.5 13 Noroeste 39 Oeste 0 -- -- 57
2019-02-02 12:00:00 6.7 13 Noroeste 33 Noroeste 0 -- -- 60
2019-02-02 11:00:00 5.7 15 Noroeste 36 Noroeste 0 -- -- 64
2019-02-02 10:00:00 5.3 8 Noroeste 30 Oeste 0 -- -- 70
2019-02-02 09:00:00 5 6 Noroeste 34 Noroeste 0.2 -- -- 77
2019-02-02 08:00:00 5 13 Noroeste 35 Noroeste 2.2 -- -- 83
2019-02-02 07:00:00 5.7 17 Noroeste 43 Norte 0 -- -- 76
2019-02-02 06:00:00 5.7 12 Noroeste 40 Noroeste 0.6 -- -- 79
2019-02-02 05:00:00 5.8 11 Noroeste 35 Noroeste 1.2 -- -- 81
2019-02-02 04:00:00 6.2 12 Noroeste 50 Noroeste 0 -- -- 78
2019-02-02 03:00:00 6.3 18 Noroeste 50 Oeste 0 -- -- 74
2019-02-02 02:00:00 6.1 16 Noroeste 42 Noroeste 0 -- -- 75
2019-02-02 01:00:00 6 20 Noroeste 41 Oeste 0.2 -- -- 76
2019-02-02 00:00:00 5.6 17 Noroeste 51 Oeste 0 -- -- 74
2019-02-01 23:00:00 5.5 10 Noroeste 47 Noroeste 2.4 -- -- 83
2019-02-01 22:00:00 6.8 14 Noroeste 51 Noroeste 0 -- -- 75
2019-02-01 21:00:00 6.8 15 Noroeste 49 Noroeste 1 -- -- 79
2019-02-01 20:00:00 6.3 15 Oeste 46 Sudoeste 8.8 -- -- 88
2019-02-01 19:00:00 8 19 Oeste 59 Oeste 0.2 -- -- 77
2019-02-01 18:00:00 7.9 20 Oeste 48 Oeste 1.6 -- -- 80
2019-02-01 17:00:00 8.1 20 Oeste 55 Oeste 0.6 -- -- 85
2019-02-01 16:00:00 9.8 26 Oeste 66 Oeste 0 -- -- 67
2019-02-01 15:00:00 11.2 19 Oeste 53 Oeste 0 -- -- 58
2019-02-01 14:00:00 10.5 19 Oeste 61 Oeste 0 -- -- 69
2019-02-01 13:00:00 10.1 16 Noroeste 51 Norte 0 -- -- 70
2019-02-01 12:00:00 9.6 12 Oeste 51 Oeste 0 -- -- 71
2019-02-01 11:00:00 8.5 18 Oeste 51 Noroeste 0.2 -- -- 81
2019-02-01 10:00:00 8.7 5 Oeste 31 Oeste 0.8 -- -- 91
2019-02-01 09:00:00 11 17 Oeste 48 Oeste 7.4 -- -- 94
2019-02-01 08:00:00 11.1 24 Oeste 43 Sudoeste 6.4 -- -- 95
2019-02-01 07:00:00 10.6 22 Oeste 68 Oeste 7.4 -- -- 94
2019-02-01 06:00:00 10.9 28 Oeste 75 Oeste 2.6 -- -- 93
2019-02-01 05:00:00 11 29 Oeste 60 Oeste 3.2 -- -- 94
2019-02-01 04:00:00 10.8 27 Oeste 68 Oeste 3 -- -- 94
2019-02-01 03:00:00 10.8 30 Oeste 63 Oeste 1.2 -- -- 94
2019-02-01 02:00:00 10.5 17 Oeste 50 Oeste 1.6 -- -- 95
2019-02-01 01:00:00 10.6 23 Oeste 51 Oeste 3 -- -- 94
2019-02-01 00:00:00 10.3 18 Oeste 33 Noroeste 2.4 -- -- 96
2019-01-31 23:00:00 10 12 Oeste 36 Oeste 1.4 -- -- 96
2019-01-31 22:00:00 9.8 17 Oeste 40 Oeste 1.6 -- -- 95
2019-01-31 21:00:00 9.3 10 Oeste 22 Oeste 2 -- -- 96
2019-01-31 20:00:00 9.3 15 Oeste 30 Oeste 1.2 -- -- 95
2019-01-31 19:00:00 9.4 12 Oeste 26 Oeste 0.6 -- -- 93
2019-01-31 18:00:00 10.3 14 Oeste 37 Noroeste 0 -- -- 87
2019-01-31 17:00:00 10.9 24 Oeste 46 Oeste 0 -- -- 81
2019-01-31 16:00:00 10.6 27 Oeste 56 Oeste 0 -- -- 85
2019-01-31 15:00:00 10.5 17 Oeste 45 Oeste 0.2 -- -- 90
2019-01-31 14:00:00 10.2 16 Oeste 32 Oeste 0.4 -- -- 93
2019-01-31 13:00:00 10.4 15 Oeste 31 Oeste 0.2 -- -- 94
2019-01-31 12:00:00 10.1 12 Oeste 38 Oeste 0.2 -- -- 94
2019-01-31 11:00:00 10 17 Oeste 47 Oeste 0.2 -- -- 94
2019-01-31 10:00:00 10 16 Oeste 33 Oeste 0.4 -- -- 94
2019-01-31 09:00:00 9.7 11 Oeste 28 Oeste 0.2 -- -- 94
2019-01-31 08:00:00 9.8 7 Oeste 36 Oeste 0.4 -- -- 94
2019-01-31 07:00:00 9.7 13 Oeste 32 Oeste 0.4 -- -- 94
2019-01-31 06:00:00 9.5 7 Oeste 32 Oeste 0.6 -- -- 94
2019-01-31 05:00:00 9.5 15 Oeste 33 Oeste 0.8 -- -- 93
2019-01-31 04:00:00 9.5 8 Oeste 31 Oeste 0.6 -- -- 92
2019-01-31 03:00:00 9.5 9 Oeste 27 Sudoeste 0.6 -- -- 92
2019-01-31 02:00:00 9.6 11 Noroeste 28 Oeste 0.2 -- -- 89
2019-01-31 01:00:00 9.5 6 Oeste 40 Oeste 0.2 -- -- 91
2019-01-31 00:00:00 9.6 20 Oeste 35 Oeste 0.4 -- -- 91
2019-01-30 23:00:00 9.4 4 Oeste 11 Sudoeste 0.2 -- -- 89
2019-01-30 22:00:00 9.6 0 Calma 9 Sur 0.4 -- -- 89
2019-01-30 21:00:00 9.7 0 Calma 8 Sudeste 0.4 -- -- 85
2019-01-30 20:00:00 9.6 3 Este 6 Este 0 -- -- 78
2019-01-30 19:00:00 9.8 3 Sudeste 21 Oeste 0 -- -- 72
2019-01-30 18:00:00 10.2 9 Noroeste 27 Noroeste 0 -- -- 67
2019-01-30 17:00:00 10.6 13 Noroeste 32 Oeste 0 -- -- 61
2019-01-30 16:00:00 11.1 19 Noroeste 34 Noroeste 0 -- -- 58
2019-01-30 15:00:00 12.4 19 Oeste 36 Oeste 0 -- -- 57
2019-01-30 14:00:00 13.1 18 Oeste 28 Oeste 0 -- -- 57
2019-01-30 13:00:00 12 9 Nordeste 22 Nordeste 0 -- -- 65
2019-01-30 12:00:00 11.4 4 Noroeste 21 Nordeste 0 -- -- 64
2019-01-30 11:00:00 10.4 5 Oeste 33 Noroeste 0 -- -- 70
2019-01-30 10:00:00 10 7 Noroeste 38 Oeste 0 -- -- 77
2019-01-30 09:00:00 9.6 9 Oeste 44 Noroeste 0 -- -- 84
2019-01-30 08:00:00 9.4 12 Oeste 32 Noroeste 0.2 -- -- 86
2019-01-30 07:00:00 8.3 8 Sudeste 13 Sur 0.2 -- -- 94
2019-01-30 06:00:00 8.3 2 Sur 6 Sur 0.2 -- -- 92
2019-01-30 05:00:00 8.3 2 Sudoeste 6 Sudoeste 0 -- -- 90
2019-01-30 04:00:00 8.4 4 Sur 10 Sudoeste 0 -- -- 86
2019-01-30 03:00:00 8.6 7 Oeste 29 Oeste 0 -- -- 82
2019-01-30 02:00:00 9 7 Oeste 26 Noroeste 0 -- -- 79
2019-01-30 01:00:00 9.3 12 Oeste 25 Oeste 0 -- -- 76
2019-01-30 00:00:00 9.6 13 Oeste 27 Oeste 0 -- -- 74
2019-01-29 23:00:00 10 11 Oeste 28 Noroeste 0 -- -- 74
2019-01-29 22:00:00 10.1 6 Oeste 21 Oeste 0 -- -- 74
2019-01-29 21:00:00 10.4 9 Noroeste 28 Norte 0 -- -- 69
2019-01-29 20:00:00 10.4 6 Oeste 22 Noroeste 0 -- -- 73
2019-01-29 19:00:00 10.3 9 Noroeste 27 Noroeste 0 -- -- 74
2019-01-29 18:00:00 10.1 12 Noroeste 30 Oeste 0 -- -- 75
2019-01-29 17:00:00 9.8 5 Noroeste 27 Oeste 0 -- -- 75
2019-01-29 16:00:00 9.6 6 Sudoeste 28 Norte 0 -- -- 80
2019-01-29 15:00:00 9.9 11 Oeste 40 Oeste 0 -- -- 77
2019-01-29 14:00:00 10.9 21 Oeste 33 Oeste 0 -- -- 71
2019-01-29 13:00:00 11.5 14 Noroeste 27 Oeste 0 -- -- 65
2019-01-29 12:00:00 11 10 Oeste 25 Oeste 0 -- -- 65
2019-01-29 11:00:00 8.9 9 Oeste 20 Noroeste 0 -- -- 76
2019-01-29 10:00:00 8.2 6 Oeste 13 Noroeste 0 -- -- 80
2019-01-29 09:00:00 6.4 4 Noroeste 14 Norte 0 -- -- 87
2019-01-29 08:00:00 6.1 5 Noroeste 12 Este 0 -- -- 88
2019-01-29 07:00:00 6.2 2 Sudoeste 9 Nordeste 0 -- -- 86
2019-01-29 06:00:00 6.6 3 Norte 10 Nordeste 0 -- -- 86
2019-01-29 05:00:00 7.9 8 Nordeste 23 Nordeste 0 -- -- 78
2019-01-29 04:00:00 7.3 6 Norte 9 Noroeste 0 -- -- 84
2019-01-29 03:00:00 7.8 3 Norte 5 Norte 0 -- -- 85
2019-01-29 02:00:00 8 0 Calma 7 Sudeste 0 -- -- 82
2019-01-29 01:00:00 8.3 6 Sudeste 15 Noroeste 0 -- -- 82
2019-01-29 00:00:00 8.9 5 Noroeste 16 Nordeste 0 -- -- 77
2019-01-28 23:00:00 9.2 7 Norte 26 Este 0 -- -- 75
2019-01-28 22:00:00 9.3 9 Nordeste 43 Norte 0 -- -- 73
2019-01-28 21:00:00 9.3 18 Nordeste 42 Nordeste 0 -- -- 73
2019-01-28 20:00:00 9.9 17 Nordeste 36 Nordeste 0 -- -- 71
2019-01-28 19:00:00 10.1 13 Noroeste 34 Norte 0 -- -- 66
2019-01-28 18:00:00 11.9 10 Norte 27 Noroeste 0 -- -- 55
2019-01-28 17:00:00 13.2 11 Noroeste 31 Noroeste 0 -- -- 51
2019-01-28 16:00:00 12.8 12 Noroeste 40 Oeste 0 -- -- 50
2019-01-28 15:00:00 12.9 17 Oeste 44 Oeste 0 -- -- 50
2019-01-28 14:00:00 13.4 9 Sudeste 33 Nordeste 0 -- -- 46
2019-01-28 13:00:00 11.6 14 Oeste 31 Oeste 0 -- -- 54
2019-01-28 12:00:00 10.3 6 Noroeste 17 Oeste 0 -- -- 57
2019-01-28 11:00:00 8.7 7 Sudeste 23 Sudeste 0 -- -- 61
2019-01-28 10:00:00 7.1 10 Sudeste 33 Sudeste 0 -- -- 64
2019-01-28 09:00:00 6.8 11 Sur 44 Norte 0 -- -- 60
2019-01-28 08:00:00 6.2 18 Norte 46 Norte 0 -- -- 62
2019-01-28 07:00:00 6.4 20 Norte 50 Norte 0 -- -- 62
2019-01-28 06:00:00 6.2 16 Nordeste 42 Nordeste 0 -- -- 69
2019-01-28 05:00:00 6.4 13 Nordeste 28 Nordeste 0 -- -- 68
2019-01-28 04:00:00 6.4 10 Nordeste 21 Nordeste 0 -- -- 69
2019-01-28 03:00:00 6.5 8 Nordeste 24 Norte 0 -- -- 71
2019-01-28 02:00:00 7 13 Nordeste 30 Nordeste 0 -- -- 68
2019-01-28 01:00:00 7.2 12 Nordeste 34 Norte 0 -- -- 69
2019-01-28 00:00:00 7.7 15 Norte 34 Nordeste 0 -- -- 65
2019-01-27 23:00:00 7.6 5 Norte 30 Este 0 -- -- 67
2019-01-27 22:00:00 8.1 14 Nordeste 30 Nordeste 0 -- -- 70
2019-01-27 21:00:00 8.2 7 Sur 32 Nordeste 0 -- -- 72
2019-01-27 20:00:00 8.9 13 Nordeste 34 Nordeste 0 -- -- 69
2019-01-27 19:00:00 9.5 9 Oeste 32 Noroeste 0 -- -- 67
2019-01-27 18:00:00 11.1 10 Noroeste 32 Noroeste 0 -- -- 62
2019-01-27 17:00:00 13.1 10 Oeste 35 Nordeste 0 -- -- 58
2019-01-27 16:00:00 13.7 13 Nordeste 36 Norte 0 -- -- 49
2019-01-27 15:00:00 14.2 14 Norte 36 Nordeste 0 -- -- 40
2019-01-27 14:00:00 13.3 12 Oeste 28 Oeste 0 -- -- 54
2019-01-27 13:00:00 12.6 19 Oeste 41 Oeste 0 -- -- 54
2019-01-27 12:00:00 12 22 Noroeste 48 Noroeste 0 -- -- 61
2019-01-27 11:00:00 12 16 Noroeste 39 Oeste 0 -- -- 60
2019-01-27 10:00:00 10.6 13 Noroeste 28 Noroeste 0 -- -- 70
2019-01-27 09:00:00 7.7 4 Sur 10 Sudeste 0 -- -- 83
2019-01-27 08:00:00 6.8 4 Sudeste 8 Sur 0 -- -- 83
2019-01-27 07:00:00 7 0 Calma 9 Noroeste 0 -- -- 76
2019-01-27 06:00:00 9.3 0 Calma 11 Nordeste 0 -- -- 63
2019-01-27 05:00:00 11.4 6 Nordeste 28 Nordeste 0 -- -- 57
2019-01-27 04:00:00 11 8 Nordeste 24 Nordeste 0 -- -- 55
2019-01-27 03:00:00 11.4 6 Sudeste 30 Norte 0 -- -- 55
2019-01-27 02:00:00 12.5 18 Norte 30 Norte 0 -- -- 52
2019-01-27 01:00:00 8.5 3 Sudeste 10 Nordeste 0 -- -- 74
2019-01-27 00:00:00 8.6 0 Calma 6 Nordeste 0 -- -- 72
2019-01-26 23:00:00 9.3 2 Norte 8 Nordeste 0 -- -- 81
2019-01-26 22:00:00 9.3 3 Este 7 Nordeste 0 -- -- 82
2019-01-26 21:00:00 10.1 0 Calma 4 Nordeste 0 -- -- 80
2019-01-26 20:00:00 11.5 0 Calma 10 Norte 0 -- -- 73
2019-01-26 19:00:00 13.3 0 Calma 10 Oeste 0 -- -- 69
2019-01-26 18:00:00 16.3 5 Oeste 16 Sur 0 -- -- 60
2019-01-26 17:00:00 18 8 Sudoeste 21 Sur 0 -- -- 54
2019-01-26 16:00:00 19.4 8 Sudoeste 15 Sur 0 -- -- 46
2019-01-26 15:00:00 19.2 6 Sur 14 Oeste 0 -- -- 46
2019-01-26 14:00:00 17.6 8 Noroeste 16 Oeste 0 -- -- 48
2019-01-26 13:00:00 16.6 9 Oeste 14 Oeste 0 -- -- 50
2019-01-26 12:00:00 16.3 5 Sudoeste 12 Sudoeste 0 -- -- 51
2019-01-26 11:00:00 14.7 3 Oeste 5 Sudoeste 0 -- -- 54
2019-01-26 10:00:00 10.6 0 Calma 5 Este 0 -- -- 71
2019-01-26 09:00:00 8.2 4 Nordeste 10 Nordeste 0 -- -- 68
2019-01-26 08:00:00 8.2 4 Este 9 Nordeste 0 -- -- 66
2019-01-26 07:00:00 9 5 Nordeste 9 Nordeste 0 -- -- 62
2019-01-26 06:00:00 8.3 2 Este 9 Nordeste 0 -- -- 60
2019-01-26 05:00:00 8.7 0 Calma 10 Nordeste 0 -- -- 58
2019-01-26 04:00:00 9.6 8 Nordeste 13 Nordeste 0 -- -- 57
2019-01-26 03:00:00 9.8 3 Nordeste 10 Nordeste 0 -- -- 59
2019-01-26 02:00:00 10.8 0 Calma 27 Nordeste 0 -- -- 55
2019-01-26 01:00:00 10.9 3 Nordeste 13 Nordeste 0 -- -- 55
2019-01-26 00:00:00 11.8 6 Norte 27 Nordeste 0 -- -- 54
2019-01-25 23:00:00 12.8 10 Norte 35 Este 0 -- -- 50
2019-01-25 22:00:00 12.3 5 Norte 40 Este 0 -- -- 56
2019-01-25 21:00:00 11.6 7 Este 12 Este 0 -- -- 54
2019-01-25 20:00:00 12.7 2 Sudoeste 13 Noroeste 0 -- -- 58
2019-01-25 19:00:00 14.3 8 Sudeste 23 Este 0 -- -- 51
2019-01-25 18:00:00 16.6 10 Este 30 Este 0 -- -- 47
2019-01-25 17:00:00 18.9 6 Sur 22 Este 0 -- -- 44
2019-01-25 16:00:00 19.2 8 Nordeste 31 Sudeste 0 -- -- 40
2019-01-25 15:00:00 18.8 8 Nordeste 25 Nordeste 0 -- -- 40
2019-01-25 14:00:00 18.4 12 Nordeste 24 Nordeste 0 -- -- 44
2019-01-25 13:00:00 17.3 4 Norte 30 Nordeste 0 -- -- 49
2019-01-25 12:00:00 15.6 13 Nordeste 35 Nordeste 0 -- -- 49
2019-01-25 11:00:00 14.7 15 Este 32 Nordeste 0 -- -- 51
2019-01-25 10:00:00 12.6 10 Este 30 Nordeste 0 -- -- 61
2019-01-25 09:00:00 8.7 2 Sur 8 Sudoeste 0 -- -- 83
2019-01-25 08:00:00 8.7 3 Sudeste 10 Nordeste 0 -- -- 79
2019-01-25 07:00:00 8.8 3 Nordeste 8 Norte 0 -- -- 78
2019-01-25 06:00:00 9.1 5 Nordeste 12 Nordeste 0 -- -- 77
2019-01-25 05:00:00 9 4 Este 9 Este 0 -- -- 78
2019-01-25 04:00:00 10 4 Nordeste 13 Este 0 -- -- 75
2019-01-25 03:00:00 9.5 3 Sudeste 13 Nordeste 0 -- -- 80
2019-01-25 02:00:00 9.1 7 Nordeste 15 Nordeste 0 -- -- 86
2019-01-25 01:00:00 9.2 4 Este 9 Sudeste 0 -- -- 86
2019-01-25 00:00:00 9 3 Este 5 Este 0 -- -- 84
2019-01-24 23:00:00 9.4 2 Nordeste 7 Nordeste 0 -- -- 84
2019-01-24 22:00:00 9.5 0 Calma 6 Sudeste 0 -- -- 82
2019-01-24 21:00:00 9.7 2 Este 6 Este 0 -- -- 81
2019-01-24 20:00:00 10.2 3 Sudeste 17 Norte 0 -- -- 77
2019-01-24 19:00:00 11.6 3 Nordeste 23 Noroeste 0 -- -- 72
2019-01-24 18:00:00 13.4 8 Noroeste 29 Noroeste 0 -- -- 67
2019-01-24 17:00:00 15.1 9 Este 33 Este 0 -- -- 60
2019-01-24 16:00:00 16.6 8 Oeste 21 Noroeste 0 -- -- 58
2019-01-24 15:00:00 16.2 6 Sudoeste 18 Noroeste 0 -- -- 61
2019-01-24 14:00:00 15 10 Sur 26 Oeste 0 -- -- 62
2019-01-24 13:00:00 14.1 7 Sur 18 Sudoeste 0 -- -- 66
2019-01-24 12:00:00 13.1 7 Sudoeste 21 Sudoeste 0 -- -- 70
2019-01-24 11:00:00 11.7 10 Sudoeste 18 Sur 0 -- -- 74
2019-01-24 10:00:00 10.1 4 Sudoeste 42 Nordeste 0 -- -- 81
2019-01-24 09:00:00 9.2 13 Nordeste 29 Norte 0 -- -- 79
2019-01-24 08:00:00 8.7 5 Sur 15 Noroeste 0 -- -- 85
2019-01-24 07:00:00 8.7 7 Norte 15 Norte 0.2 -- -- 89
2019-01-24 06:00:00 8.6 0 Calma 12 Sudeste 0 -- -- 92
2019-01-24 05:00:00 8.6 3 Sur 13 Sudeste 0 -- -- 92
2019-01-24 04:00:00 8.8 6 Sudeste 12 Sudeste 0.2 -- -- 90
2019-01-24 03:00:00 9.2 3 Sur 17 Noroeste 0 -- -- 86
2019-01-24 02:00:00 9.5 4 Oeste 17 Oeste 0 -- -- 82
2019-01-24 01:00:00 9.7 5 Oeste 15 Oeste 0 -- -- 80
2019-01-24 00:00:00 9.6 3 Sudoeste 8 Sudoeste 0 -- -- 79